sensor_id;sensor_type;location;lat;lon;timestamp;pressure;altitude;pressure_sealevel;temperature;humidity
20027;BME280;10174;42.688;23.344;2023-04-22T00:00:36;95004.72;;;8.24;84.98
20027;BME280;10174;42.688;23.344;2023-04-22T00:03:02;94987.25;;;8.16;85.11
20027;BME280;10174;42.688;23.344;2023-04-22T00:05:28;94976.97;;;8.03;85.09
20027;BME280;10174;42.688;23.344;2023-04-22T00:07:53;95005.13;;;8.11;85.44
20027;BME280;10174;42.688;23.344;2023-04-22T00:10:19;94947.03;;;7.74;85.92
20027;BME280;10174;42.688;23.344;2023-04-22T00:12:44;94991.69;;;8.00;85.88
20027;BME280;10174;42.688;23.344;2023-04-22T00:15:10;95000.78;;;8.05;85.87
20027;BME280;10174;42.688;23.344;2023-04-22T00:17:36;94906.09;;;7.41;85.52
20027;BME280;10174;42.688;23.344;2023-04-22T00:20:01;94990.56;;;7.96;85.85
20027;BME280;10174;42.688;23.344;2023-04-22T00:22:27;94999.19;;;8.03;85.48
20027;BME280;10174;42.688;23.344;2023-04-22T00:24:53;94970.66;;;7.82;85.29
20027;BME280;10174;42.688;23.344;2023-04-22T00:27:18;95004.22;;;8.00;85.07
20027;BME280;10174;42.688;23.344;2023-04-22T00:29:43;94966.72;;;7.62;85.33
20027;BME280;10174;42.688;23.344;2023-04-22T00:32:09;94947.75;;;7.37;86.05
20027;BME280;10174;42.688;23.344;2023-04-22T00:34:34;95003.19;;;7.74;86.04
20027;BME280;10174;42.688;23.344;2023-04-22T00:37:00;94982.16;;;7.55;86.07
20027;BME280;10174;42.688;23.344;2023-04-22T00:39:25;94988.88;;;7.58;86.49
20027;BME280;10174;42.688;23.344;2023-04-22T00:41:51;94990.94;;;7.51;86.36
20027;BME280;10174;42.688;23.344;2023-04-22T00:44:17;94979.69;;;7.48;86.38
20027;BME280;10174;42.688;23.344;2023-04-22T00:46:43;94989.91;;;7.57;86.74
20027;BME280;10174;42.688;23.344;2023-04-22T00:49:09;94889.66;;;7.00;86.36
20027;BME280;10174;42.688;23.344;2023-04-22T00:51:35;94942.00;;;7.23;86.27
20027;BME280;10174;42.688;23.344;2023-04-22T00:54:00;94962.78;;;7.43;86.60
20027;BME280;10174;42.688;23.344;2023-04-22T00:56:27;95000.16;;;7.65;86.84
20027;BME280;10174;42.688;23.344;2023-04-22T00:58:53;94984.88;;;7.60;86.68
20027;BME280;10174;42.688;23.344;2023-04-22T01:01:18;94988.38;;;7.61;86.80
20027;BME280;10174;42.688;23.344;2023-04-22T01:03:45;95022.78;;;7.79;87.22
20027;BME280;10174;42.688;23.344;2023-04-22T01:06:12;94917.66;;;6.97;87.39
20027;BME280;10174;42.688;23.344;2023-04-22T01:08:39;95009.28;;;7.69;87.85
20027;BME280;10174;42.688;23.344;2023-04-22T01:11:05;94976.94;;;7.43;87.13
20027;BME280;10174;42.688;23.344;2023-04-22T01:13:30;94986.84;;;7.43;87.22
20027;BME280;10174;42.688;23.344;2023-04-22T01:15:57;95003.00;;;7.53;87.34
20027;BME280;10174;42.688;23.344;2023-04-22T01:18:24;94996.66;;;7.37;87.80
20027;BME280;10174;42.688;23.344;2023-04-22T01:20:49;95026.03;;;7.59;88.19
20027;BME280;10174;42.688;23.344;2023-04-22T01:23:19;95023.13;;;7.61;88.32
20027;BME280;10174;42.688;23.344;2023-04-22T01:25:46;95019.63;;;7.60;87.91
20027;BME280;10174;42.688;23.344;2023-04-22T01:28:12;94997.56;;;7.48;87.35
20027;BME280;10174;42.688;23.344;2023-04-22T01:30:38;95009.69;;;7.56;87.29
20027;BME280;10174;42.688;23.344;2023-04-22T01:33:04;95005.53;;;7.43;88.00
20027;BME280;10174;42.688;23.344;2023-04-22T01:35:29;95005.41;;;7.32;88.83
20027;BME280;10174;42.688;23.344;2023-04-22T01:38:04;94975.81;;;7.12;89.38
20027;BME280;10174;42.688;23.344;2023-04-22T01:40:31;95006.50;;;7.31;89.62
20027;BME280;10174;42.688;23.344;2023-04-22T01:43:00;95008.66;;;7.35;89.26
20027;BME280;10174;42.688;23.344;2023-04-22T01:45:26;94967.97;;;7.05;88.98
20027;BME280;10174;42.688;23.344;2023-04-22T01:47:52;95029.09;;;7.46;89.08
20027;BME280;10174;42.688;23.344;2023-04-22T01:50:17;95012.84;;;7.53;89.00
20027;BME280;10174;42.688;23.344;2023-04-22T01:52:43;94975.97;;;7.27;88.52
20027;BME280;10174;42.688;23.344;2023-04-22T01:55:08;95020.34;;;7.51;89.61
20027;BME280;10174;42.688;23.344;2023-04-22T01:57:34;95021.69;;;7.53;88.98
20027;BME280;10174;42.688;23.344;2023-04-22T02:00:00;94948.50;;;7.10;88.95
20027;BME280;10174;42.688;23.344;2023-04-22T02:02:25;94908.69;;;6.81;88.48
20027;BME280;10174;42.688;23.344;2023-04-22T02:04:51;95002.91;;;7.48;89.00
20027;BME280;10174;42.688;23.344;2023-04-22T02:07:16;94984.16;;;7.43;88.79
20027;BME280;10174;42.688;23.344;2023-04-22T02:09:42;94992.28;;;7.53;88.46
20027;BME280;10174;42.688;23.344;2023-04-22T02:12:07;95006.75;;;7.57;88.62
20027;BME280;10174;42.688;23.344;2023-04-22T02:14:33;94984.13;;;7.38;88.67
20027;BME280;10174;42.688;23.344;2023-04-22T02:16:58;94907.72;;;6.92;88.58
20027;BME280;10174;42.688;23.344;2023-04-22T02:19:24;94989.00;;;7.46;88.46
20027;BME280;10174;42.688;23.344;2023-04-22T02:21:49;95014.38;;;7.71;88.56
20027;BME280;10174;42.688;23.344;2023-04-22T02:24:15;94988.28;;;7.56;88.45
20027;BME280;10174;42.688;23.344;2023-04-22T02:26:40;94988.13;;;7.62;88.51
20027;BME280;10174;42.688;23.344;2023-04-22T02:29:07;95002.53;;;7.61;88.65
20027;BME280;10174;42.688;23.344;2023-04-22T02:31:32;95019.56;;;7.77;88.74
20027;BME280;10174;42.688;23.344;2023-04-22T02:33:58;95024.56;;;7.74;88.71
20027;BME280;10174;42.688;23.344;2023-04-22T02:36:23;94983.66;;;7.46;88.96
20027;BME280;10174;42.688;23.344;2023-04-22T02:38:48;95020.31;;;7.73;89.19
20027;BME280;10174;42.688;23.344;2023-04-22T02:41:14;94998.81;;;7.62;89.17
20027;BME280;10174;42.688;23.344;2023-04-22T02:43:39;94983.78;;;7.56;88.61
20027;BME280;10174;42.688;23.344;2023-04-22T02:46:10;95002.53;;;7.61;88.74
20027;BME280;10174;42.688;23.344;2023-04-22T02:48:37;95029.94;;;7.74;88.76
20027;BME280;10174;42.688;23.344;2023-04-22T02:51:02;95032.59;;;7.74;88.95
20027;BME280;10174;42.688;23.344;2023-04-22T02:53:28;94985.47;;;7.40;89.10
20027;BME280;10174;42.688;23.344;2023-04-22T02:55:53;95038.44;;;7.71;89.07
20027;BME280;10174;42.688;23.344;2023-04-22T02:58:21;94988.47;;;7.44;88.71
20027;BME280;10174;42.688;23.344;2023-04-22T03:00:46;94988.97;;;7.41;88.88
20027;BME280;10174;42.688;23.344;2023-04-22T03:03:12;95028.38;;;7.78;88.55
20027;BME280;10174;42.688;23.344;2023-04-22T03:05:37;95037.44;;;7.77;88.42
20027;BME280;10174;42.688;23.344;2023-04-22T03:08:02;94922.31;;;7.07;88.50
20027;BME280;10174;42.688;23.344;2023-04-22T03:10:28;94999.69;;;7.46;89.23
20027;BME280;10174;42.688;23.344;2023-04-22T03:12:53;94885.06;;;6.73;89.14
20027;BME280;10174;42.688;23.344;2023-04-22T03:15:18;95011.09;;;7.36;89.44
20027;BME280;10174;42.688;23.344;2023-04-22T03:17:44;95000.91;;;7.33;89.31
20027;BME280;10174;42.688;23.344;2023-04-22T03:20:10;95005.41;;;7.32;89.13
20027;BME280;10174;42.688;23.344;2023-04-22T03:22:36;95039.91;;;7.56;89.46
20027;BME280;10174;42.688;23.344;2023-04-22T03:25:01;95048.44;;;7.53;89.12
20027;BME280;10174;42.688;23.344;2023-04-22T03:27:27;95025.75;;;7.34;89.52
20027;BME280;10174;42.688;23.344;2023-04-22T03:29:53;94931.38;;;6.62;89.83
20027;BME280;10174;42.688;23.344;2023-04-22T03:32:18;95048.75;;;7.35;90.33
20027;BME280;10174;42.688;23.344;2023-04-22T03:34:43;94956.59;;;6.71;90.74
20027;BME280;10174;42.688;23.344;2023-04-22T03:37:09;95042.78;;;7.27;90.87
20027;BME280;10174;42.688;23.344;2023-04-22T03:39:35;95025.56;;;7.18;90.32
20027;BME280;10174;42.688;23.344;2023-04-22T03:42:00;95023.56;;;7.08;90.08
20027;BME280;10174;42.688;23.344;2023-04-22T03:44:26;95058.44;;;7.19;90.44
20027;BME280;10174;42.688;23.344;2023-04-22T03:46:51;94991.22;;;6.66;91.27
20027;BME280;10174;42.688;23.344;2023-04-22T03:49:16;95063.38;;;7.10;91.64
20027;BME280;10174;42.688;23.344;2023-04-22T03:51:42;95020.69;;;6.93;91.61
20027;BME280;10174;42.688;23.344;2023-04-22T03:54:07;95071.47;;;7.15;91.87
20027;BME280;10174;42.688;23.344;2023-04-22T03:56:33;94899.31;;;6.17;90.18
20027;BME280;10174;42.688;23.344;2023-04-22T03:58:58;95034.50;;;7.07;89.89
20027;BME280;10174;42.688;23.344;2023-04-22T04:01:23;94922.88;;;6.26;89.83
20027;BME280;10174;42.688;23.344;2023-04-22T04:03:49;95017.09;;;6.82;90.78
20027;BME280;10174;42.688;23.344;2023-04-22T04:06:15;95004.56;;;6.66;91.29
20027;BME280;10174;42.688;23.344;2023-04-22T04:08:40;95037.94;;;6.85;91.38
20027;BME280;10174;42.688;23.344;2023-04-22T04:11:08;95079.06;;;7.23;91.13
20027;BME280;10174;42.688;23.344;2023-04-22T04:13:33;95005.09;;;6.85;90.80
20027;BME280;10174;42.688;23.344;2023-04-22T04:15:58;95012.13;;;6.91;90.50
20027;BME280;10174;42.688;23.344;2023-04-22T04:18:24;95030.88;;;6.96;90.53
20027;BME280;10174;42.688;23.344;2023-04-22T04:20:50;95022.06;;;6.95;90.97
20027;BME280;10174;42.688;23.344;2023-04-22T04:23:16;95047.94;;;7.12;90.86
20027;BME280;10174;42.688;23.344;2023-04-22T04:25:41;95052.78;;;7.15;91.43
20027;BME280;10174;42.688;23.344;2023-04-22T04:28:09;95077.66;;;7.38;91.45
20027;BME280;10174;42.688;23.344;2023-04-22T04:30:36;95086.03;;;7.46;90.92
20027;BME280;10174;42.688;23.344;2023-04-22T04:33:02;95007.47;;;7.03;90.73
20027;BME280;10174;42.688;23.344;2023-04-22T04:35:35;95062.72;;;7.42;90.28
20027;BME280;10174;42.688;23.344;2023-04-22T04:38:02;95078.38;;;7.55;88.73
20027;BME280;10174;42.688;23.344;2023-04-22T04:40:28;95081.59;;;7.57;87.88
20027;BME280;10174;42.688;23.344;2023-04-22T04:42:55;95095.47;;;7.76;87.97
20027;BME280;10174;42.688;23.344;2023-04-22T04:45:22;94963.31;;;6.95;87.23
20027;BME280;10174;42.688;23.344;2023-04-22T04:47:47;95064.09;;;7.66;86.43
20027;BME280;10174;42.688;23.344;2023-04-22T04:50:17;94950.50;;;6.98;84.88
20027;BME280;10174;42.688;23.344;2023-04-22T04:52:45;95091.00;;;7.82;84.56
20027;BME280;10174;42.688;23.344;2023-04-22T04:55:10;95085.00;;;7.70;84.26
20027;BME280;10174;42.688;23.344;2023-04-22T04:57:36;95071.63;;;7.70;84.40
20027;BME280;10174;42.688;23.344;2023-04-22T05:00:01;95117.91;;;7.97;83.54
20027;BME280;10174;42.688;23.344;2023-04-22T05:02:27;95110.94;;;7.96;83.62
20027;BME280;10174;42.688;23.344;2023-04-22T05:04:53;95084.16;;;7.91;83.80
20027;BME280;10174;42.688;23.344;2023-04-22T05:07:18;95108.28;;;7.96;83.89
20027;BME280;10174;42.688;23.344;2023-04-22T05:09:43;95059.81;;;7.65;83.69
20027;BME280;10174;42.688;23.344;2023-04-22T05:12:09;95120.69;;;8.08;82.86
20027;BME280;10174;42.688;23.344;2023-04-22T05:14:34;95092.88;;;8.09;82.37
20027;BME280;10174;42.688;23.344;2023-04-22T05:17:00;95066.22;;;7.92;81.65
20027;BME280;10174;42.688;23.344;2023-04-22T05:19:25;94999.91;;;7.39;82.22
20027;BME280;10174;42.688;23.344;2023-04-22T05:21:50;95120.44;;;8.36;81.96
20027;BME280;10174;42.688;23.344;2023-04-22T05:24:16;95133.22;;;8.56;80.97
20027;BME280;10174;42.688;23.344;2023-04-22T05:26:41;94877.22;;;7.10;80.60
20027;BME280;10174;42.688;23.344;2023-04-22T05:29:07;95054.50;;;8.25;80.42
20027;BME280;10174;42.688;23.344;2023-04-22T05:31:32;95131.50;;;8.72;80.31
20027;BME280;10174;42.688;23.344;2023-04-22T05:33:58;95111.72;;;8.79;79.76
20027;BME280;10174;42.688;23.344;2023-04-22T05:36:23;95079.59;;;8.79;79.00
20027;BME280;10174;42.688;23.344;2023-04-22T05:38:49;95016.50;;;8.55;77.99
20027;BME280;10174;42.688;23.344;2023-04-22T05:41:14;95081.94;;;9.07;77.44
20027;BME280;10174;42.688;23.344;2023-04-22T05:43:40;95127.22;;;9.57;75.89
20027;BME280;10174;42.688;23.344;2023-04-22T05:46:06;95042.78;;;9.06;75.55
20027;BME280;10174;42.688;23.344;2023-04-22T05:48:31;95111.63;;;9.49;75.62
20027;BME280;10174;42.688;23.344;2023-04-22T05:50:57;95107.94;;;9.60;76.54
20027;BME280;10174;42.688;23.344;2023-04-22T05:53:22;95129.44;;;9.75;75.73
20027;BME280;10174;42.688;23.344;2023-04-22T05:55:47;95133.84;;;10.02;75.10
20027;BME280;10174;42.688;23.344;2023-04-22T05:58:13;95021.97;;;9.24;74.82
20027;BME280;10174;42.688;23.344;2023-04-22T06:00:38;95133.31;;;10.05;75.11
20027;BME280;10174;42.688;23.344;2023-04-22T06:03:03;95104.59;;;10.01;74.82
20027;BME280;10174;42.688;23.344;2023-04-22T06:05:29;95103.19;;;9.83;75.81
20027;BME280;10174;42.688;23.344;2023-04-22T06:07:54;95132.53;;;10.10;74.65
20027;BME280;10174;42.688;23.344;2023-04-22T06:10:20;95054.84;;;9.62;74.23
20027;BME280;10174;42.688;23.344;2023-04-22T06:12:45;95115.28;;;9.95;75.22
20027;BME280;10174;42.688;23.344;2023-04-22T06:15:11;95110.72;;;9.80;75.82
20027;BME280;10174;42.688;23.344;2023-04-22T06:17:36;95120.44;;;10.02;75.36
20027;BME280;10174;42.688;23.344;2023-04-22T06:20:01;95114.53;;;10.05;74.95
20027;BME280;10174;42.688;23.344;2023-04-22T06:22:27;95082.81;;;9.97;74.37
20027;BME280;10174;42.688;23.344;2023-04-22T06:24:52;95134.94;;;10.06;73.76
20027;BME280;10174;42.688;23.344;2023-04-22T06:27:18;95081.16;;;9.75;74.12
20027;BME280;10174;42.688;23.344;2023-04-22T06:29:43;95132.38;;;10.42;72.66
20027;BME280;10174;42.688;23.344;2023-04-22T06:32:09;95129.16;;;10.61;71.38
20027;BME280;10174;42.688;23.344;2023-04-22T06:34:34;95108.47;;;10.72;71.42
20027;BME280;10174;42.688;23.344;2023-04-22T06:37:00;95110.09;;;10.73;70.95
20027;BME280;10174;42.688;23.344;2023-04-22T06:39:25;95060.66;;;10.43;71.42
20027;BME280;10174;42.688;23.344;2023-04-22T06:41:50;95104.16;;;10.96;70.50
20027;BME280;10174;42.688;23.344;2023-04-22T06:44:16;95117.88;;;11.05;70.52
20027;BME280;10174;42.688;23.344;2023-04-22T06:46:41;95083.47;;;10.92;70.91
20027;BME280;10174;42.688;23.344;2023-04-22T06:49:06;95111.94;;;11.29;69.97
20027;BME280;10174;42.688;23.344;2023-04-22T06:51:32;95059.31;;;10.97;70.16
20027;BME280;10174;42.688;23.344;2023-04-22T06:53:57;95075.13;;;11.03;70.67
20027;BME280;10174;42.688;23.344;2023-04-22T06:56:23;95117.28;;;11.34;70.97
20027;BME280;10174;42.688;23.344;2023-04-22T06:58:49;95080.47;;;11.19;70.51
20027;BME280;10174;42.688;23.344;2023-04-22T07:01:14;95109.66;;;11.72;70.13
20027;BME280;10174;42.688;23.344;2023-04-22T07:03:40;95138.84;;;12.59;66.97
20027;BME280;10174;42.688;23.344;2023-04-22T07:06:05;95088.53;;;12.84;64.99
20027;BME280;10174;42.688;23.344;2023-04-22T07:08:31;95112.31;;;13.89;62.22
20027;BME280;10174;42.688;23.344;2023-04-22T07:10:56;95139.81;;;15.43;58.65
20027;BME280;10174;42.688;23.344;2023-04-22T07:13:22;95116.09;;;16.74;53.43
20027;BME280;10174;42.688;23.344;2023-04-22T07:15:47;95143.50;;;17.09;51.33
20027;BME280;10174;42.688;23.344;2023-04-22T07:18:12;95134.09;;;17.69;49.93
20027;BME280;10174;42.688;23.344;2023-04-22T07:20:38;95075.66;;;17.09;49.54
20027;BME280;10174;42.688;23.344;2023-04-22T07:23:03;95099.59;;;17.70;48.47
20027;BME280;10174;42.688;23.344;2023-04-22T07:25:29;95074.78;;;16.77;50.29
20027;BME280;10174;42.688;23.344;2023-04-22T07:27:54;95038.19;;;15.93;51.85
20027;BME280;10174;42.688;23.344;2023-04-22T07:30:20;95090.88;;;16.37;52.02
20027;BME280;10174;42.688;23.344;2023-04-22T07:32:45;95099.78;;;16.01;52.32
20027;BME280;10174;42.688;23.344;2023-04-22T07:35:11;95081.88;;;17.72;48.72
20027;BME280;10174;42.688;23.344;2023-04-22T07:37:36;95036.63;;;18.43;46.04
20027;BME280;10174;42.688;23.344;2023-04-22T07:40:02;95122.66;;;18.21;46.68
20027;BME280;10174;42.688;23.344;2023-04-22T07:42:27;95113.25;;;17.87;47.88
20027;BME280;10174;42.688;23.344;2023-04-22T07:44:53;95102.53;;;18.66;45.94
20027;BME280;10174;42.688;23.344;2023-04-22T07:47:18;95117.25;;;18.39;45.95
20027;BME280;10174;42.688;23.344;2023-04-22T07:49:43;95041.72;;;18.18;45.39
20027;BME280;10174;42.688;23.344;2023-04-22T07:52:09;95138.44;;;18.10;46.65
20027;BME280;10174;42.688;23.344;2023-04-22T07:54:35;95083.63;;;17.37;46.43
20027;BME280;10174;42.688;23.344;2023-04-22T07:57:00;95086.13;;;17.24;46.93
20027;BME280;10174;42.688;23.344;2023-04-22T07:59:26;95123.53;;;17.90;46.12
20027;BME280;10174;42.688;23.344;2023-04-22T08:01:51;95040.28;;;16.91;46.74
20027;BME280;10174;42.688;23.344;2023-04-22T08:04:17;95046.88;;;18.37;42.36
20027;BME280;10174;42.688;23.344;2023-04-22T08:06:42;95069.75;;;18.54;42.83
20027;BME280;10174;42.688;23.344;2023-04-22T08:09:07;95095.19;;;19.84;40.24
20027;BME280;10174;42.688;23.344;2023-04-22T08:11:34;95048.75;;;19.15;40.66
20027;BME280;10174;42.688;23.344;2023-04-22T08:14:00;95101.41;;;19.93;40.73
20027;BME280;10174;42.688;23.344;2023-04-22T08:16:25;94950.56;;;19.20;39.73
20027;BME280;10174;42.688;23.344;2023-04-22T08:18:50;95099.94;;;19.96;39.83
20027;BME280;10174;42.688;23.344;2023-04-22T08:21:16;95100.88;;;20.80;38.01
20027;BME280;10174;42.688;23.344;2023-04-22T08:23:41;95076.72;;;21.25;37.17
20027;BME280;10174;42.688;23.344;2023-04-22T08:26:07;95106.38;;;22.95;34.45
20027;BME280;10174;42.688;23.344;2023-04-22T08:28:33;95105.47;;;22.91;34.21
20027;BME280;10174;42.688;23.344;2023-04-22T08:30:59;95099.28;;;24.11;32.44
20027;BME280;10174;42.688;23.344;2023-04-22T08:33:24;95063.19;;;22.36;34.76
20027;BME280;10174;42.688;23.344;2023-04-22T08:35:50;95078.63;;;21.12;36.44
20027;BME280;10174;42.688;23.344;2023-04-22T08:38:15;95072.22;;;21.08;35.89
20027;BME280;10174;42.688;23.344;2023-04-22T08:40:41;95073.09;;;21.45;35.50
20027;BME280;10174;42.688;23.344;2023-04-22T08:43:07;95084.03;;;22.16;34.24
20027;BME280;10174;42.688;23.344;2023-04-22T08:45:33;95062.28;;;22.32;34.18
20027;BME280;10174;42.688;23.344;2023-04-22T08:47:59;95085.84;;;20.44;37.16
20027;BME280;10174;42.688;23.344;2023-04-22T08:50:25;95050.44;;;19.46;39.75
20027;BME280;10174;42.688;23.344;2023-04-22T08:52:50;95055.03;;;20.23;37.58
20027;BME280;10174;42.688;23.344;2023-04-22T08:55:16;95037.88;;;21.65;35.69
20027;BME280;10174;42.688;23.344;2023-04-22T08:57:41;95046.06;;;22.39;33.98
20027;BME280;10174;42.688;23.344;2023-04-22T09:00:08;94998.69;;;23.36;31.42
20027;BME280;10174;42.688;23.344;2023-04-22T09:02:35;94991.38;;;24.59;29.96
20027;BME280;10174;42.688;23.344;2023-04-22T09:05:02;95023.06;;;25.57;28.66
20027;BME280;10174;42.688;23.344;2023-04-22T09:07:31;95047.41;;;25.16;29.68
20027;BME280;10174;42.688;23.344;2023-04-22T09:09:57;95063.50;;;25.57;28.42
20027;BME280;10174;42.688;23.344;2023-04-22T09:12:26;95047.59;;;24.49;29.78
20027;BME280;10174;42.688;23.344;2023-04-22T09:14:52;95055.94;;;25.73;29.30
20027;BME280;10174;42.688;23.344;2023-04-22T09:17:29;95078.22;;;25.68;28.71
20027;BME280;10174;42.688;23.344;2023-04-22T09:19:59;94999.03;;;25.12;28.67
20027;BME280;10174;42.688;23.344;2023-04-22T09:22:26;95061.66;;;23.80;30.54
20027;BME280;10174;42.688;23.344;2023-04-22T09:24:52;95061.44;;;24.36;30.20
20027;BME280;10174;42.688;23.344;2023-04-22T09:27:18;95058.06;;;23.92;30.80
20027;BME280;10174;42.688;23.344;2023-04-22T09:29:48;95054.50;;;23.59;30.90
20027;BME280;10174;42.688;23.344;2023-04-22T09:32:14;95012.56;;;22.99;31.48
20027;BME280;10174;42.688;23.344;2023-04-22T09:34:51;95046.63;;;24.06;30.78
20027;BME280;10174;42.688;23.344;2023-04-22T09:37:18;95043.94;;;24.25;30.11
20027;BME280;10174;42.688;23.344;2023-04-22T09:39:47;95041.28;;;25.03;28.55
20027;BME280;10174;42.688;23.344;2023-04-22T09:42:13;95030.72;;;26.71;25.84
20027;BME280;10174;42.688;23.344;2023-04-22T09:44:39;94993.34;;;25.90;27.11
20027;BME280;10174;42.688;23.344;2023-04-22T09:47:04;95026.09;;;25.75;27.56
20027;BME280;10174;42.688;23.344;2023-04-22T09:49:35;94958.50;;;22.67;28.91
20027;BME280;10174;42.688;23.344;2023-04-22T09:52:02;95044.84;;;21.99;31.48
20027;BME280;10174;42.688;23.344;2023-04-22T09:54:27;95022.97;;;20.20;35.60
20027;BME280;10174;42.688;23.344;2023-04-22T09:56:53;94971.03;;;18.53;39.29
20027;BME280;10174;42.688;23.344;2023-04-22T09:59:31;95057.53;;;18.07;40.38
20027;BME280;10174;42.688;23.344;2023-04-22T10:01:58;95054.91;;;17.85;40.47
20027;BME280;10174;42.688;23.344;2023-04-22T10:04:25;95052.94;;;20.50;35.33
20027;BME280;10174;42.688;23.344;2023-04-22T10:06:52;95023.53;;;20.34;34.38
20027;BME280;10174;42.688;23.344;2023-04-22T10:09:19;95013.19;;;21.15;32.72
20027;BME280;10174;42.688;23.344;2023-04-22T10:11:46;95005.94;;;21.32;32.23
20027;BME280;10174;42.688;23.344;2023-04-22T10:14:12;95002.28;;;21.28;33.27
20027;BME280;10174;42.688;23.344;2023-04-22T10:16:44;95027.81;;;22.55;31.97
20027;BME280;10174;42.688;23.344;2023-04-22T10:19:13;94999.81;;;22.90;30.41
20027;BME280;10174;42.688;23.344;2023-04-22T10:21:43;94959.00;;;22.85;29.59
20027;BME280;10174;42.688;23.344;2023-04-22T10:24:14;95039.94;;;21.93;30.17
20027;BME280;10174;42.688;23.344;2023-04-22T10:26:55;94929.69;;;20.69;32.37
20027;BME280;10174;42.688;23.344;2023-04-22T10:29:25;95013.28;;;21.52;32.43
20027;BME280;10174;42.688;23.344;2023-04-22T10:31:55;95022.00;;;23.29;29.17
20027;BME280;10174;42.688;23.344;2023-04-22T10:34:22;94942.69;;;23.05;27.83
20027;BME280;10174;42.688;23.344;2023-04-22T10:36:56;94996.56;;;23.77;27.25
20027;BME280;10174;42.688;23.344;2023-04-22T10:39:22;95016.75;;;24.00;27.66
20027;BME280;10174;42.688;23.344;2023-04-22T10:44:19;95013.34;;;24.59;25.68
20027;BME280;10174;42.688;23.344;2023-04-22T10:49:22;95013.53;;;24.89;25.84
20027;BME280;10174;42.688;23.344;2023-04-22T10:51:48;95008.72;;;25.25;25.62
20027;BME280;10174;42.688;23.344;2023-04-22T10:57:12;95006.97;;;24.19;26.24
20027;BME280;10174;42.688;23.344;2023-04-22T10:59:54;94921.22;;;23.71;25.75
20027;BME280;10174;42.688;23.344;2023-04-22T11:02:21;95000.53;;;23.95;25.59
20027;BME280;10174;42.688;23.344;2023-04-22T11:04:47;94764.34;;;21.70;27.08
20027;BME280;10174;42.688;23.344;2023-04-22T11:17:32;95009.56;;;24.86;26.95
20027;BME280;10174;42.688;23.344;2023-04-22T11:19:58;95016.56;;;24.64;28.27
20027;BME280;10174;42.688;23.344;2023-04-22T11:22:24;95019.53;;;23.24;30.24
20027;BME280;10174;42.688;23.344;2023-04-22T11:27:19;95026.53;;;23.70;31.47
20027;BME280;10174;42.688;23.344;2023-04-22T11:32:24;95038.34;;;24.38;30.23
20027;BME280;10174;42.688;23.344;2023-04-22T11:34:50;95038.63;;;24.52;30.61
20027;BME280;10174;42.688;23.344;2023-04-22T11:37:18;95033.19;;;23.69;31.13
20027;BME280;10174;42.688;23.344;2023-04-22T11:39:43;95058.78;;;23.28;32.36
20027;BME280;10174;42.688;23.344;2023-04-22T11:42:11;95047.88;;;22.22;32.33
20027;BME280;10174;42.688;23.344;2023-04-22T11:44:38;95044.72;;;21.71;33.80
20027;BME280;10174;42.688;23.344;2023-04-22T11:47:04;95031.03;;;21.59;33.40
20027;BME280;10174;42.688;23.344;2023-04-22T11:49:29;95007.81;;;20.73;34.56
20027;BME280;10174;42.688;23.344;2023-04-22T11:51:57;95020.56;;;19.58;36.47
20027;BME280;10174;42.688;23.344;2023-04-22T11:54:33;95080.59;;;19.32;39.16
20027;BME280;10174;42.688;23.344;2023-04-22T11:57:00;95070.97;;;19.35;38.81
20027;BME280;10174;42.688;23.344;2023-04-22T11:59:26;95074.16;;;19.46;38.63
20027;BME280;10174;42.688;23.344;2023-04-22T12:01:52;95066.50;;;18.16;40.09
20027;BME280;10174;42.688;23.344;2023-04-22T12:04:20;94970.78;;;17.62;41.53
20027;BME280;10174;42.688;23.344;2023-04-22T12:06:46;95040.69;;;17.79;41.82
20027;BME280;10174;42.688;23.344;2023-04-22T12:09:11;95060.09;;;18.04;41.24
20027;BME280;10174;42.688;23.344;2023-04-22T12:11:38;95003.84;;;17.55;39.71
20027;BME280;10174;42.688;23.344;2023-04-22T12:14:06;94995.72;;;16.38;42.58
20027;BME280;10174;42.688;23.344;2023-04-22T12:16:41;95080.66;;;17.47;42.39
20027;BME280;10174;42.688;23.344;2023-04-22T12:19:07;95063.38;;;17.83;42.14
20027;BME280;10174;42.688;23.344;2023-04-22T12:21:33;94996.59;;;17.33;41.07
20027;BME280;10174;42.688;23.344;2023-04-22T12:24:06;94956.88;;;16.52;42.09
20027;BME280;10174;42.688;23.344;2023-04-22T12:26:32;94936.88;;;16.70;41.52
20027;BME280;10174;42.688;23.344;2023-04-22T12:28:58;95056.03;;;17.12;42.94
20027;BME280;10174;42.688;23.344;2023-04-22T12:31:25;95050.69;;;16.98;43.75
20027;BME280;10174;42.688;23.344;2023-04-22T12:33:51;94981.16;;;16.57;44.45
20027;BME280;10174;42.688;23.344;2023-04-22T12:36:17;95064.75;;;16.41;44.04
20027;BME280;10174;42.688;23.344;2023-04-22T12:38:45;94954.53;;;16.36;44.44
20027;BME280;10174;42.688;23.344;2023-04-22T12:41:10;94968.59;;;16.38;44.50
20027;BME280;10174;42.688;23.344;2023-04-22T12:43:36;95072.88;;;17.23;44.18
20027;BME280;10174;42.688;23.344;2023-04-22T12:46:03;95047.75;;;17.17;44.21
20027;BME280;10174;42.688;23.344;2023-04-22T12:48:28;94855.84;;;15.83;45.09
20027;BME280;10174;42.688;23.344;2023-04-22T12:50:54;95041.88;;;17.24;44.75
20027;BME280;10174;42.688;23.344;2023-04-22T12:53:21;94993.78;;;16.84;43.56
20027;BME280;10174;42.688;23.344;2023-04-22T12:55:47;94937.66;;;16.39;44.78
20027;BME280;10174;42.688;23.344;2023-04-22T12:58:12;95010.06;;;16.62;44.59
20027;BME280;10174;42.688;23.344;2023-04-22T13:00:38;95055.28;;;16.52;44.16
20027;BME280;10174;42.688;23.344;2023-04-22T13:03:04;95053.91;;;16.41;45.47
20027;BME280;10174;42.688;23.344;2023-04-22T13:05:30;95019.22;;;15.93;44.19
20027;BME280;10174;42.688;23.344;2023-04-22T13:07:55;94977.91;;;15.73;44.44
20027;BME280;10174;42.688;23.344;2023-04-22T13:10:21;95027.50;;;16.10;44.28
20027;BME280;10174;42.688;23.344;2023-04-22T13:12:47;95055.81;;;16.04;43.86